• Join FlightAware (Why Join?)
  • Login
  • US Flag 
09:38PM EDT


 

Airport Tracker/Info


-or-


 

Live Flight TrackerFlight Track Log ✈ UAL258 ✈ 17-May-2013 ✈ KORD - KLAS

Flight Track Log - Related Links

Times and Time Zones

All times are in EDT time to prevent confusion due to time zone crossing. See the UAL258 flight status page for this flight to view local times or setup timezone preferences in your user account.

Time Position Orientation Groundspeed Altitude Reporting Facility
EDT Latitude Longitude Course Direction KTS MPH feet Rate Location/Type
09:00AM 41.9333 -87.9167 261° West 162 186 2,600  Level Chicago TRACON
09:01AM 41.9000 -87.9667 228° Southwest 156 180 4,100 1,260 Climbing Chicago TRACON
09:02AM 41.9000 -88.0333 270° West 233 268 5,000 1,920 Climbing Chicago TRACON
09:03AM 41.9327 -88.3367 255° West  Level FlightAware Approximate
09:04AM 41.9148 -88.4823 261° West  Level FlightAware Approximate
09:04AM 41.9081 -88.2267 273° West 276 318 10,000  Level Chicago Center
09:05AM 41.8977 -88.6291 261° West  Level FlightAware Approximate
09:05AM 41.9089 -88.3575 271° West 289 333 12,700  Level Chicago Center
09:06AM 41.8804 -88.7759 261° West  Level FlightAware Approximate
09:06AM 41.9086 -88.4803 270° West 318 366 14,300  Level Chicago Center
09:07AM 41.9089 -88.6136 270° West 352 405 16,300 1,800 Climbing Chicago Center
09:09AM 41.9078 -88.7503 269° West 367 422 18,100 1,680 Climbing Chicago Center
09:10AM 41.8961 -88.8878 264° West 374 430 19,800 1,620 Climbing Chicago Center
09:11AM 41.8875 -89.0308 265° West 385 443 21,500 1,680 Climbing Chicago Center
09:12AM 41.8764 -89.2072 265° West 397 457 23,300 1,440 Climbing Chicago Center
09:13AM 41.8656 -89.3556 264° West 403 464 24,500 960 Climbing Chicago Center
09:14AM 41.8511 -89.5100 263° West 417 480 25,400 1,080 Climbing Chicago Center
09:15AM 41.8358 -89.6664 263° West 425 489 26,700 1,020 Climbing Chicago Center
09:16AM 41.8200 -89.8250 262° West 431 496 27,500 900 Climbing Chicago Center
09:17AM 41.8031 -90.0128 263° West 448 516 28,600 960 Climbing Chicago Center
09:18AM 41.7875 -90.1656 262° West 450 518 29,600 960 Climbing Chicago Center
09:19AM 41.7692 -90.3322 262° West 454 522 30,700 960 Climbing Chicago Center
09:20AM 41.7528 -90.4972 262° West 451 519 31,700 1,020 Climbing Chicago Center
09:21AM 41.7350 -90.6689 262° West 442 509 32,900 960 Climbing Chicago Center
09:22AM 41.7169 -90.8294 261° West 440 506 33,700 540 Climbing Chicago Center
09:23AM 41.6972 -91.0211 262° West 436 502 34,000 120 Climbing Chicago Center
09:24AM 41.6797 -91.1806 262° West 436 502 34,000  Level Chicago Center
09:25AM 41.6619 -91.3397 262° West 435 501 34,000  Level Chicago Center
09:26AM 41.6436 -91.5011 261° West 440 506 34,000  Level Chicago Center
09:27AM 41.6250 -91.6617 261° West 440 506 34,000  Level Chicago Center
09:28AM 41.6069 -91.8228 262° West 441 507 34,000  Level Chicago Center
09:29AM 41.5839 -92.0172 261° West 443 510 34,000  Level Chicago Center
09:30AM 41.5639 -92.1800 261° West 446 513 34,000  Level Chicago Center
09:31AM 41.5458 -92.3428 262° West 446 513 34,000  Level Chicago Center
09:32AM 41.5256 -92.5033 260° West 443 510 34,000  Level Chicago Center
09:33AM 41.4972 -92.7289 261° West 441 507 34,000  Level Minneapolis Center
09:34AM 41.4775 -92.8883 261° West 440 506 34,000  Level Minneapolis Center
09:36AM 41.4569 -93.0472 260° West 440 506 34,000  Level Minneapolis Center
09:37AM 41.4369 -93.2028 260° West 437 503 34,000  Level Minneapolis Center
09:38AM 41.4169 -93.3581 260° West 435 501 34,000  Level Minneapolis Center
09:39AM 41.3972 -93.5089 260° West 429 494 34,000  Level Minneapolis Center
09:40AM 41.3747 -93.6847 260° West 416 479 34,000  Level Minneapolis Center
09:41AM 41.3553 -93.8358 260° West 418 481 34,000  Level Minneapolis Center
09:42AM 41.3344 -93.9875 260° West 420 483 34,000  Level Minneapolis Center
09:43AM 41.3133 -94.1417 260° West 425 489 34,000  Level Minneapolis Center
09:44AM 41.2889 -94.3122 259° West 427 491 34,000  Level Minneapolis Center
09:45AM 41.2692 -94.4667 260° West 425 489 34,000  Level Minneapolis Center
09:46AM 41.2461 -94.6250 259° West 432 497 34,000  Level Minneapolis Center
09:47AM 41.2231 -94.7836 259° West 435 501 34,000  Level Minneapolis Center
09:48AM 41.2011 -94.9400 259° West 433 498 34,000  Level Minneapolis Center
09:49AM 41.1772 -95.0989 259° West 435 501 34,000  Level Minneapolis Center
09:50AM 41.1536 -95.2581 259° West 437 503 34,000  Level Minneapolis Center
09:51AM 41.1244 -95.4494 259° West 438 504 34,000  Level Minneapolis Center
09:52AM 41.0997 -95.6072 258° West 436 502 34,000  Level Minneapolis Center
09:53AM 41.0756 -95.7672 259° West 436 502 34,000  Level Minneapolis Center
09:54AM 41.0456 -95.9589 258° West 438 504 34,000  Level Minneapolis Center
09:55AM 41.0217 -96.1189 259° West 438 504 34,000  Level Minneapolis Center
09:56AM 40.9967 -96.2772 258° West 437 503 34,000 60 Level Minneapolis Center
09:57AM 40.9714 -96.4356 258° West 437 503 34,200 420 Climbing Minneapolis Center
09:58AM 40.9472 -96.5944 259° West 439 505 34,900 660 Climbing Minneapolis Center
09:59AM 40.9211 -96.7519 258° West 438 504 35,600 480 Climbing Minneapolis Center
10:00AM 40.8792 -96.9019 250° West 435 501 36,000 180 Climbing Minneapolis Center
10:01AM 40.8269 -97.0792 249° West 432 497 36,000  Level Minneapolis Center
10:02AM 40.7842 -97.2278 249° West 433 498 36,000  Level Minneapolis Center
10:03AM 40.7400 -97.3803 249° West 434 499 36,000  Level Minneapolis Center
10:04AM 40.6969 -97.5297 249° West 435 501 36,000  Level Minneapolis Center
10:05AM 40.6539 -97.6789 249° West 435 501 36,000  Level Minneapolis Center
10:07AM 40.6106 -97.8286 249° West 435 501 36,000  Level Minneapolis Center
10:08AM 40.5661 -97.9769 249° West 435 501 36,000  Level Minneapolis Center
10:09AM 40.5214 -98.1253 248° West 435 501 36,000  Level Minneapolis Center
10:10AM 40.4778 -98.2736 249° West 434 499 36,000  Level Minneapolis Center
10:11AM 40.4339 -98.4206 249° West 432 497 36,000  Level Minneapolis Center
10:12AM 40.3794 -98.5986 248° West 434 499 36,000  Level Minneapolis Center
10:13AM 40.3347 -98.7481 249° West 437 503 36,000  Level Minneapolis Center
10:14AM 40.2883 -98.8986 248° West 441 507 36,000  Level Minneapolis Center
10:14AM 40.2608 -98.9889 248° West 441 507 36,000  Level Denver Center
10:15AM 40.2150 -99.1381 248° West 441 507 36,000  Level Denver Center
10:16AM 40.1689 -99.2856 248° West 437 503 36,000  Level Denver Center
10:17AM 40.1231 -99.4331 248° West 437 503 36,000  Level Denver Center
10:18AM 40.0769 -99.5817 248° West 440 506 36,000  Level Denver Center
10:19AM 40.0294 -99.7322 248° West 446 513 36,000  Level Denver Center
10:20AM 39.9819 -99.8803 247° West 443 510 36,100  Climbing Denver Center
10:21AM 39.9356 -100.0278 248° West 441 507 36,000 -60 Descending Denver Center
10:22AM 39.8883 -100.1736 247° West 437 503 36,000  Level Denver Center
10:24AM 39.8364 -100.3328 247° West 435 501 36,000  Level Denver Center
10:25AM 39.7833 -100.4967 247° West 439 505 36,000  Level Denver Center
10:26AM 39.7383 -100.6375 247° West 439 505 36,000  Level Denver Center
10:27AM 39.6925 -100.7758 247° West 435 501 36,000  Level Denver Center
10:28AM 39.6392 -100.9375 247° West 436 502 36,000  Level Denver Center
10:29AM 39.5781 -101.1242 247° West 439 505 36,000  Level Denver Center
10:30AM 39.5322 -101.2625 247° West 436 502 36,000  Level Denver Center
10:31AM 39.4778 -101.4256 247° West 441 507 36,000  Level Denver Center
10:32AM 39.4314 -101.5628 246° West 437 503 36,000  Level Denver Center
10:33AM 39.3889 -101.7019 248° West 435 501 36,000  Level Denver Center
10:34AM 39.3606 -101.8703 258° West 430 495 36,000  Level Denver Center
10:35AM 39.3383 -102.0144 259° West 428 493 36,000  Level Denver Center
10:36AM 39.3122 -102.1872 259° West 424 488 36,000  Level Denver Center
10:37AM 39.2903 -102.3300 259° West 425 489 36,000  Level Denver Center
10:38AM 39.2642 -102.4972 259° West 427 491 36,000  Level Denver Center
10:39AM 39.2406 -102.6419 258° West 431 496 36,000  Level Denver Center
10:40AM 39.2172 -102.7889 258° West 429 494 36,000  Level Denver Center
10:41AM 39.1906 -102.9569 258° West 429 494 36,000  Level Denver Center
10:42AM 39.1669 -103.1008 258° West 429 494 36,000  Level Denver Center
10:43AM 39.1392 -103.2689 258° West 432 497 36,000  Level Denver Center
10:44AM 39.1158 -103.4131 258° West 431 496 36,000  Level Denver Center
10:45AM 39.0878 -103.5822 258° West 434 499 36,000  Level Denver Center
10:46AM 39.0628 -103.7261 257° West 433 498 36,000  Level Denver Center
10:47AM 39.0344 -103.8956 258° West 434 499 36,000  Level Denver Center
10:49AM 39.0100 -104.0403 258° West 434 499 36,000  Level Denver Center
10:50AM 38.9811 -104.2081 258° West 433 498 36,000  Level Denver Center
10:51AM 38.9558 -104.3508 257° West 429 494 36,000  Level Denver Center
10:52AM 38.9264 -104.5186 257° West 435 501 36,000  Level Denver Center
10:53AM 38.9014 -104.6586 257° West 426 490 36,000  Level Denver Center
10:54AM 38.8719 -104.8256 257° West 429 494 36,000  Level Denver Center
10:55AM 38.8472 -104.9636 257° West 419 482 36,000  Level Denver Center
10:56AM 38.8206 -105.1031 256° West 421 484 36,000  Level Denver Center
10:57AM 38.7928 -105.2661 258° West 420 483 36,000  Level Denver Center
10:58AM 38.7664 -105.4075 257° West 424 488 36,000  Level Denver Center
10:59AM 38.7344 -105.5725 256° West 426 490 36,000  Level Denver Center
11:00AM 38.7089 -105.7128 257° West 426 490 36,000  Level Denver Center
11:01AM 38.6839 -105.8800 259° West 431 496 36,000  Level Denver Center
11:02AM 38.7025 -106.0736 277° West 433 498 36,000  Level Denver Center
11:03AM 38.7164 -106.2058 278° West 432 497 36,000  Level Denver Center
11:04AM 38.7103 -106.3608 267° West 430 495 36,000  Level Denver Center
11:05AM 38.7003 -106.5450 266° West 430 495 36,000  Level Denver Center
11:06AM 38.6917 -106.6989 266° West 430 495 36,000  Level Denver Center
11:07AM 38.6839 -106.8497 266° West 425 489 36,000  Level Denver Center
11:08AM 38.6450 -106.9928 251° West 425 489 36,000  Level Denver Center
11:09AM 38.5897 -107.1250 242° Southwest 423 487 36,000  Level Denver Center
11:10AM 38.5314 -107.2614 241° Southwest 418 481 36,000  Level Denver Center
11:11AM 38.4700 -107.4081 242° Southwest 420 483 36,000  Level Denver Center
11:13AM 38.4167 -107.5325 241° Southwest 417 480 36,000  Level Denver Center
11:14AM 38.3539 -107.6794 241° Southwest 421 484 36,000  Level Denver Center
11:15AM 38.3039 -107.7964 241° Southwest 405 466 36,000  Level Denver Center
11:16AM 38.2414 -107.9408 241° Southwest 413 475 36,000  Level Denver Center
11:17AM 38.1872 -108.0686 242° Southwest 425 489 36,000  Level Denver Center
11:18AM 38.1319 -108.1950 241° Southwest 428 493 36,100  Climbing Denver Center
11:19AM 38.0653 -108.3508 242° Southwest 429 494 36,100 -60 Level Denver Center
11:20AM 38.0108 -108.4728 240° Southwest 421 484 36,000 -60 Descending Denver Center
11:21AM 37.9467 -108.6175 241° Southwest 422 486 36,000  Level Denver Center
11:22AM 37.8839 -108.7606 241° Southwest 418 481 36,000  Level Denver Center
11:23AM 37.8225 -108.9014 241° Southwest 412 474 36,000  Level Denver Center
11:24AM 37.7839 -109.0300 249° West 411 473 36,000  Level Denver Center
11:25AM 37.7464 -109.1842 253° West 412 474 36,000  Level Denver Center
11:26AM 37.7014 -109.3631 252° West 418 481 36,000  Level Denver Center
11:27AM 37.6683 -109.4953 253° West 415 478 36,000  Level Denver Center
11:28AM 37.6342 -109.6292 252° West 419 482 36,000  Level Denver Center
11:29AM 37.5947 -109.7858 252° West 420 483 36,000  Level Denver Center
11:30AM 37.5614 -109.9181 252° West 416 479 36,000 -300 Level Denver Center
11:32AM 37.5225 -110.0703 252° West 410 472 35,400 -720 Descending Denver Center
11:33AM 37.4878 -110.2014 252° West 412 474 34,500 -900 Descending Denver Center
11:34AM 37.4469 -110.3600 252° West 402 463 33,400 -1,020 Descending Denver Center
11:35AM 37.4042 -110.5200 251° West 402 463 32,200 -660 Descending Denver Center
11:36AM 37.3625 -110.6806 252° West 403 464 32,000 -120 Descending Denver Center
11:37AM 37.3269 -110.8144 252° West 404 465 32,000  Level Denver Center
11:38AM 37.2925 -110.9483 252° West 405 466 32,000  Level Denver Center
11:39AM 37.2597 -111.0806 253° West 398 458 32,000  Level Denver Center
11:40AM 37.2233 -111.2156 251° West 405 466 32,000 -300 Level Denver Center
11:41AM 37.1808 -111.3781 252° West 408 470 31,500 -840 Descending Denver Center
11:42AM 37.1439 -111.5114 251° West 406 467 30,300 -1,260 Descending Denver Center
11:43AM 37.1064 -111.6450 251° West 406 467 28,900 -1,140 Descending Denver Center
11:44AM 37.0697 -111.7764 251° West 402 463 28,000 -480 Descending Denver Center
11:45AM 37.0364 -111.9100 253° West 401 461 28,000  Level Denver Center
11:46AM 37.0028 -112.0503 253° West 414 476 28,000  Level Denver Center
11:47AM 36.9758 -112.1606 253° West 413 475 28,000  Level Los Angeles Center
11:48AM 36.9422 -112.3008 253° West 418 481 28,000  Level Los Angeles Center
11:49AM 36.9011 -112.4664 253° West 415 478 28,000  Level Los Angeles Center
11:51AM 36.8683 -112.6036 253° West 412 474 28,000  Level Los Angeles Center
11:52AM 36.8283 -112.7681 253° West 412 474 28,000  Level Los Angeles Center
11:53AM 36.7950 -112.9028 253° West 407 468 28,000  Level Los Angeles Center
11:54AM 36.7611 -113.0397 253° West 411 473 28,000 -540 Level Los Angeles Center
11:55AM 36.7278 -113.1769 253° West 413 475 27,000 -960 Descending Los Angeles Center
11:56AM 36.6933 -113.3106 252° West 408 470 26,100 -1,020 Descending Los Angeles Center
11:57AM 36.6542 -113.4703 253° West 402 463 24,900 -1,080 Descending Los Angeles Center
11:58AM 36.6206 -113.6008 252° West 398 458 23,900 -1,020 Descending Los Angeles Center
11:59AM 36.5867 -113.7306 252° West 396 456 22,900 -1,080 Descending Los Angeles Center
12:00PM 36.5542 -113.8586 253° West 392 451 21,700 -1,680 Descending Los Angeles Center
12:01PM 36.5219 -113.9833 252° West 384 442 19,500 -2,460 Descending Los Angeles Center
12:02PM 36.4881 -114.1108 252° West 367 422 16,700 -2,820 Descending Los Angeles Center
12:03PM 36.4647 -114.2256 256° West 363 418 14,200 -2,400 Descending Los Angeles Center
12:03PM 36.4411 -114.3139 252° West 352 405 12,900 -1,320 Descending Los Angeles Center
12:04PM 36.4300 -114.3425 244° Southwest 348 400 12,700 -840 Descending Los Angeles Center
12:04PM 36.4144 -114.4169 255° West 309 356 12,100 -720 Descending Los Angeles Center
12:05PM 36.3981 -114.4603 245° Southwest 301 346 12,000 -120 Descending Los Angeles Center
12:06PM 36.3697 -114.4883 219° Southwest 270 311 12,000  Level Los Angeles Center
12:06PM 36.3331 -114.4878 179° South 260 299 12,000 -420 Level Los Angeles Center
12:07PM 36.3036 -114.4919 187° South 227 261 11,600 -900 Descending Los Angeles Center
12:07PM 36.2714 -114.4900 177° South 225 259 11,100 -1,020 Descending Los Angeles Center
12:08PM 36.2428 -114.4914 182° South 222 255 10,600 -1,020 Descending Los Angeles Center
12:08PM 36.2100 -114.4897 178° South 221 254 10,100 -1,140 Descending Los Angeles Center
12:09PM 36.1781 -114.4919 183° South 219 252 9,500 -1,260 Descending Los Angeles Center
12:09PM 36.1489 -114.4900 177° South 219 252 8,800 -1,380 Descending Los Angeles Center
12:10PM 36.1242 -114.5128 217° Southwest 212 244 8,100 -780 Descending Los Angeles Center
12:10PM 36.0997 -114.5308 211° Southwest 215 247 8,000 -120 Descending Los Angeles Center
12:11PM 36.0900 -114.5725 254° West 219 252 8,000 60 Level Los Angeles Center
12:11PM 36.0744 -114.6156 246° West 218 251 8,100  Climbing Los Angeles Center
12:12PM 36.0756 -114.6439 273° West 218 251 8,000  Descending Los Angeles Center
12:12PM 36.0714 -114.6911 264° West 220 253 8,100  Climbing Los Angeles Center
12:13PM 36.0747 -114.7186 279° West 219 252 8,000 -300 Descending Los Angeles Center
12:13PM 36.0697 -114.7664 263° West 219 252 7,800 -600 Descending Los Angeles Center
12:14PM 36.0742 -114.7936 281° West 223 257 7,400 -1,260 Descending Los Angeles Center
12:14PM 36.0703 -114.8417 264° West 219 252 6,500 -1,380 Descending Los Angeles Center
12:15PM 36.0750 -114.8758 280° West 216 249 6,000 -1,080 Descending Los Angeles Center
12:15PM 36.0714 -114.9178 264° West 220 253 5,400 -1,140 Descending Los Angeles Center
12:16PM 36.0733 -114.9481 275° West 191 220 4,900 -1,680 Descending Los Angeles Center